sensor_id;sensor_type;location;lat;lon;timestamp;pressure;altitude;pressure_sealevel;temperature;humidity
61682;BME280;47577;43.610;25.010;2023-01-31T07:12:41;100147.28;;;1.31;78.39
61682;BME280;47577;43.610;25.010;2023-01-31T07:20:18;100143.81;;;1.32;78.94
61682;BME280;47577;43.610;25.010;2023-01-31T07:22:43;100158.63;;;1.49;78.25
61682;BME280;47577;43.610;25.010;2023-01-31T07:35:30;100175.22;;;1.58;78.31
61682;BME280;47577;43.610;25.010;2023-01-31T07:37:55;100183.97;;;1.40;78.63
61682;BME280;47577;43.610;25.010;2023-01-31T07:40:21;100185.72;;;1.74;78.52
61682;BME280;47577;43.610;25.010;2023-01-31T07:42:47;100186.53;;;1.94;77.78
61682;BME280;47577;43.610;25.010;2023-01-31T07:45:14;100182.19;;;1.96;77.34
61682;BME280;47577;43.610;25.010;2023-01-31T07:47:40;100183.06;;;1.86;77.25
61682;BME280;47577;43.610;25.010;2023-01-31T07:50:07;100176.97;;;1.79;77.07
61682;BME280;47577;43.610;25.010;2023-01-31T07:52:33;100184.81;;;1.98;76.92
61682;BME280;47577;43.610;25.010;2023-01-31T07:54:58;100179.56;;;1.99;76.95
61682;BME280;47577;43.610;25.010;2023-01-31T07:57:24;100189.13;;;2.19;76.76
61682;BME280;47577;43.610;25.010;2023-01-31T07:59:49;100172.53;;;2.09;76.18
61682;BME280;47577;43.610;25.010;2023-01-31T08:02:16;100181.25;;;2.19;76.81
61682;BME280;47577;43.610;25.010;2023-01-31T08:04:59;100186.41;;;2.42;76.00
61682;BME280;47577;43.610;25.010;2023-01-31T08:07:26;100192.53;;;2.46;76.06
61682;BME280;47577;43.610;25.010;2023-01-31T08:09:52;100194.28;;;2.48;77.25
61682;BME280;47577;43.610;25.010;2023-01-31T08:12:17;100182.00;;;2.53;76.26
61682;BME280;47577;43.610;25.010;2023-01-31T08:14:43;100196.75;;;2.76;75.26
61682;BME280;47577;43.610;25.010;2023-01-31T08:17:09;100195.09;;;2.64;75.22
61682;BME280;47577;43.610;25.010;2023-01-31T08:19:34;100216.91;;;2.77;74.80
61682;BME280;47577;43.610;25.010;2023-01-31T08:22:01;100206.47;;;2.60;75.24
61682;BME280;47577;43.610;25.010;2023-01-31T08:27:02;100200.22;;;2.83;74.77
61682;BME280;47577;43.610;25.010;2023-01-31T08:29:28;100191.47;;;2.84;75.05
61682;BME280;47577;43.610;25.010;2023-01-31T08:31:53;100215.84;;;3.09;74.44
61682;BME280;47577;43.610;25.010;2023-01-31T08:34:19;100201.88;;;2.99;73.63
61682;BME280;47577;43.610;25.010;2023-01-31T08:36:45;100196.63;;;3.02;75.56
61682;BME280;47577;43.610;25.010;2023-01-31T08:39:11;100194.69;;;3.29;74.87
61682;BME280;47577;43.610;25.010;2023-01-31T08:41:38;100197.22;;;3.43;73.96
61682;BME280;47577;43.610;25.010;2023-01-31T08:44:05;100192.84;;;3.42;73.30
61682;BME280;47577;43.610;25.010;2023-01-31T08:46:35;100195.47;;;3.43;73.90
61682;BME280;47577;43.610;25.010;2023-01-31T08:49:03;100225.22;;;3.50;72.67
61682;BME280;47577;43.610;25.010;2023-01-31T08:51:30;100207.56;;;3.64;72.70
61682;BME280;47577;43.610;25.010;2023-01-31T08:53:55;100217.09;;;3.78;71.90
61682;BME280;47577;43.610;25.010;2023-01-31T08:56:21;100219.56;;;3.93;72.19
61682;BME280;47577;43.610;25.010;2023-01-31T08:58:51;100220.31;;;4.06;70.94
61682;BME280;47577;43.610;25.010;2023-01-31T09:01:18;100198.53;;;3.92;71.42
61682;BME280;47577;43.610;25.010;2023-01-31T09:03:45;100208.94;;;4.02;70.81
61682;BME280;47577;43.610;25.010;2023-01-31T09:06:17;100228.41;;;3.86;70.54
61682;BME280;47577;43.610;25.010;2023-01-31T09:08:43;100205.59;;;3.85;70.71
61682;BME280;47577;43.610;25.010;2023-01-31T09:11:09;100200.19;;;4.03;72.70
61682;BME280;47577;43.610;25.010;2023-01-31T09:13:35;100207.16;;;4.06;69.26
61682;BME280;47577;43.610;25.010;2023-01-31T09:16:02;100225.47;;;4.18;69.75
61682;BME280;47577;43.610;25.010;2023-01-31T09:18:28;100210.41;;;4.31;70.11
61682;BME280;47577;43.610;25.010;2023-01-31T09:20:54;100206.13;;;4.19;69.23
61682;BME280;47577;43.610;25.010;2023-01-31T09:23:21;100197.06;;;4.45;67.20
61682;BME280;47577;43.610;25.010;2023-01-31T09:25:56;100210.38;;;4.34;68.70
61682;BME280;47577;43.610;25.010;2023-01-31T09:28:22;100214.78;;;4.31;69.26
61682;BME280;47577;43.610;25.010;2023-01-31T09:30:49;100218.28;;;4.34;69.07
61682;BME280;47577;43.610;25.010;2023-01-31T09:33:18;100218.13;;;4.47;68.83
61682;BME280;47577;43.610;25.010;2023-01-31T09:35:54;100208.38;;;4.55;68.64
61682;BME280;47577;43.610;25.010;2023-01-31T09:38:20;100216.41;;;4.46;68.73
61682;BME280;47577;43.610;25.010;2023-01-31T09:40:48;100209.22;;;4.58;69.01
61682;BME280;47577;43.610;25.010;2023-01-31T09:43:14;100216.53;;;4.32;68.88
61682;BME280;47577;43.610;25.010;2023-01-31T09:45:43;100221.69;;;4.44;68.96
61682;BME280;47577;43.610;25.010;2023-01-31T09:48:17;100217.31;;;4.40;67.71
61682;BME280;47577;43.610;25.010;2023-01-31T09:50:49;100219.94;;;4.42;69.25
61682;BME280;47577;43.610;25.010;2023-01-31T09:53:20;100215.72;;;4.28;68.87
61682;BME280;47577;43.610;25.010;2023-01-31T09:59:56;100212.88;;;4.44;68.81
61682;BME280;47577;43.610;25.010;2023-01-31T10:07:26;100212.53;;;4.73;68.71
61682;BME280;47577;43.610;25.010;2023-01-31T10:12:43;100204.34;;;4.96;69.17
61682;BME280;47577;43.610;25.010;2023-01-31T10:15:20;100188.44;;;5.04;69.22
61682;BME280;47577;43.610;25.010;2023-01-31T10:17:53;100181.16;;;5.18;67.84
61682;BME280;47577;43.610;25.010;2023-01-31T10:20:30;100196.22;;;5.10;68.14
61682;BME280;47577;43.610;25.010;2023-01-31T10:23:14;100199.97;;;4.93;68.49
61682;BME280;47577;43.610;25.010;2023-01-31T10:26:00;100202.72;;;4.84;67.99
61682;BME280;47577;43.610;25.010;2023-01-31T10:28:31;100216.69;;;4.94;68.08
61682;BME280;47577;43.610;25.010;2023-01-31T10:33:57;100208.63;;;5.03;66.14
61682;BME280;47577;43.610;25.010;2023-01-31T10:38:59;100197.97;;;5.11;67.34
61682;BME280;47577;43.610;25.010;2023-01-31T10:44:52;100201.38;;;5.19;68.09
61682;BME280;47577;43.610;25.010;2023-01-31T10:47:20;100164.50;;;5.18;70.08
61682;BME280;47577;43.610;25.010;2023-01-31T10:49:48;100179.84;;;5.47;68.32
61682;BME280;47577;43.610;25.010;2023-01-31T10:55:13;100191.47;;;5.35;67.61
61682;BME280;47577;43.610;25.010;2023-01-31T10:57:42;100196.88;;;5.24;67.13
61682;BME280;47577;43.610;25.010;2023-01-31T11:00:34;100190.97;;;5.08;68.10
61682;BME280;47577;43.610;25.010;2023-01-31T11:03:00;100182.88;;;5.22;68.88
61682;BME280;47577;43.610;25.010;2023-01-31T11:05:28;100187.50;;;5.64;66.52
61682;BME280;47577;43.610;25.010;2023-01-31T11:08:16;100164.72;;;5.58;65.22
61682;BME280;47577;43.610;25.010;2023-01-31T11:10:53;100185.63;;;5.69;65.18
61682;BME280;47577;43.610;25.010;2023-01-31T11:13:19;100179.72;;;5.55;65.09
61682;BME280;47577;43.610;25.010;2023-01-31T11:15:45;100181.44;;;5.57;65.34
61682;BME280;47577;43.610;25.010;2023-01-31T11:18:28;100177.19;;;5.48;64.53
61682;BME280;47577;43.610;25.010;2023-01-31T11:20:58;100180.47;;;5.61;65.43
61682;BME280;47577;43.610;25.010;2023-01-31T11:23:28;100172.00;;;5.42;66.29
61682;BME280;47577;43.610;25.010;2023-01-31T11:25:56;100178.13;;;5.44;67.11
61682;BME280;47577;43.610;25.010;2023-01-31T11:28:26;100173.38;;;5.65;68.01
61682;BME280;47577;43.610;25.010;2023-01-31T11:30:54;100173.06;;;5.83;65.08
61682;BME280;47577;43.610;25.010;2023-01-31T11:33:55;100177.34;;;5.89;65.65
61682;BME280;47577;43.610;25.010;2023-01-31T11:36:21;100174.53;;;6.01;65.07
61682;BME280;47577;43.610;25.010;2023-01-31T11:38:52;100176.25;;;6.02;64.25
61682;BME280;47577;43.610;25.010;2023-01-31T11:41:32;100179.50;;;6.17;65.31
61682;BME280;47577;43.610;25.010;2023-01-31T11:44:16;100168.91;;;6.18;61.42
61682;BME280;47577;43.610;25.010;2023-01-31T11:46:52;100182.63;;;6.37;60.22
61682;BME280;47577;43.610;25.010;2023-01-31T11:49:23;100187.53;;;6.12;60.63
61682;BME280;47577;43.610;25.010;2023-01-31T11:51:52;100182.03;;;6.23;58.47
61682;BME280;47577;43.610;25.010;2023-01-31T11:54:22;100177.94;;;6.08;59.42
61682;BME280;47577;43.610;25.010;2023-01-31T11:56:49;100190.28;;;5.53;57.88
61682;BME280;47577;43.610;25.010;2023-01-31T11:59:19;100183.06;;;5.64;59.80
61682;BME280;47577;43.610;25.010;2023-01-31T12:01:52;100179.22;;;5.84;60.80
61682;BME280;47577;43.610;25.010;2023-01-31T12:04:30;100185.25;;;5.91;59.58
61682;BME280;47577;43.610;25.010;2023-01-31T12:07:03;100189.84;;;5.79;60.71
61682;BME280;47577;43.610;25.010;2023-01-31T12:09:40;100182.69;;;5.86;60.67
61682;BME280;47577;43.610;25.010;2023-01-31T12:14:54;100182.75;;;5.83;61.01
61682;BME280;47577;43.610;25.010;2023-01-31T12:17:20;100175.69;;;5.85;61.21
61682;BME280;47577;43.610;25.010;2023-01-31T12:22:38;100182.31;;;6.09;61.79
61682;BME280;47577;43.610;25.010;2023-01-31T12:28:20;100187.38;;;6.20;61.55
61682;BME280;47577;43.610;25.010;2023-01-31T12:31:01;100189.59;;;5.95;60.31
61682;BME280;47577;43.610;25.010;2023-01-31T12:33:54;100196.50;;;6.03;61.62
61682;BME280;47577;43.610;25.010;2023-01-31T12:36:42;100186.75;;;6.06;59.31
61682;BME280;47577;43.610;25.010;2023-01-31T13:01:04;100184.50;;;5.84;59.39
61682;BME280;47577;43.610;25.010;2023-01-31T13:03:49;100205.47;;;5.92;59.69
61682;BME280;47577;43.610;25.010;2023-01-31T13:06:23;100206.09;;;6.09;61.40
61682;BME280;47577;43.610;25.010;2023-01-31T13:08:55;100218.94;;;6.26;60.24
61682;BME280;47577;43.610;25.010;2023-01-31T13:11:30;100210.66;;;5.99;59.77
61682;BME280;47577;43.610;25.010;2023-01-31T13:14:01;100215.53;;;6.21;59.91
61682;BME280;47577;43.610;25.010;2023-01-31T13:16:34;100218.00;;;6.30;58.19
61682;BME280;47577;43.610;25.010;2023-01-31T13:19:05;100213.94;;;6.12;57.98
61682;BME280;47577;43.610;25.010;2023-01-31T13:21:39;100227.63;;;5.81;60.53
61682;BME280;47577;43.610;25.010;2023-01-31T13:24:14;100215.97;;;5.98;59.91
61682;BME280;47577;43.610;25.010;2023-01-31T13:26:49;100220.16;;;6.08;60.02
61682;BME280;47577;43.610;25.010;2023-01-31T13:29:33;100221.31;;;5.92;61.26
61682;BME280;47577;43.610;25.010;2023-01-31T13:32:08;100215.94;;;5.99;60.63
61682;BME280;47577;43.610;25.010;2023-01-31T13:34:43;100226.34;;;6.07;61.91
61682;BME280;47577;43.610;25.010;2023-01-31T13:37:13;100217.38;;;6.17;62.05
61682;BME280;47577;43.610;25.010;2023-01-31T13:40:03;100216.91;;;6.40;61.24
61682;BME280;47577;43.610;25.010;2023-01-31T13:42:31;100225.13;;;6.70;60.94
61682;BME280;47577;43.610;25.010;2023-01-31T13:45:02;100226.97;;;6.65;60.54
61682;BME280;47577;43.610;25.010;2023-01-31T13:47:39;100229.38;;;6.77;60.62
61682;BME280;47577;43.610;25.010;2023-01-31T13:50:33;100225.81;;;6.78;60.79
61682;BME280;47577;43.610;25.010;2023-01-31T13:53:05;100228.72;;;6.68;60.87
61682;BME280;47577;43.610;25.010;2023-01-31T13:55:44;100233.06;;;6.69;60.47
61682;BME280;47577;43.610;25.010;2023-01-31T13:58:21;100228.50;;;6.77;61.47
61682;BME280;47577;43.610;25.010;2023-01-31T14:00:49;100239.00;;;6.80;59.35
61682;BME280;47577;43.610;25.010;2023-01-31T14:03:24;100240.63;;;6.44;60.68
61682;BME280;47577;43.610;25.010;2023-01-31T14:05:56;100235.50;;;6.34;61.34
61682;BME280;47577;43.610;25.010;2023-01-31T14:11:01;100233.22;;;6.16;62.22
61682;BME280;47577;43.610;25.010;2023-01-31T14:15:56;100245.19;;;6.35;62.08
61682;BME280;47577;43.610;25.010;2023-01-31T14:18:44;100249.03;;;6.17;61.05
61682;BME280;47577;43.610;25.010;2023-01-31T14:23:59;100251.16;;;5.94;61.65
61682;BME280;47577;43.610;25.010;2023-01-31T14:29:20;100246.19;;;6.28;61.47
61682;BME280;47577;43.610;25.010;2023-01-31T14:31:47;100253.16;;;6.32;60.61
61682;BME280;47577;43.610;25.010;2023-01-31T14:34:24;100257.16;;;6.53;60.32
61682;BME280;47577;43.610;25.010;2023-01-31T14:37:00;100251.88;;;6.53;60.06
61682;BME280;47577;43.610;25.010;2023-01-31T14:45:15;100269.94;;;6.75;60.33
61682;BME280;47577;43.610;25.010;2023-01-31T14:48:04;100272.59;;;6.75;61.41
61682;BME280;47577;43.610;25.010;2023-01-31T14:50:46;100275.16;;;6.78;61.30
61682;BME280;47577;43.610;25.010;2023-01-31T14:58:32;100297.78;;;6.46;61.47
61682;BME280;47577;43.610;25.010;2023-01-31T15:01:04;100287.41;;;6.37;62.07
61682;BME280;47577;43.610;25.010;2023-01-31T15:06:20;100295.97;;;6.00;63.51
61682;BME280;47577;43.610;25.010;2023-01-31T15:08:48;100299.69;;;5.86;62.99
61682;BME280;47577;43.610;25.010;2023-01-31T15:13:52;100315.06;;;5.57;64.82
61682;BME280;47577;43.610;25.010;2023-01-31T15:16:32;100311.81;;;5.39;64.91
61682;BME280;47577;43.610;25.010;2023-01-31T15:19:13;100307.66;;;5.20;66.61
61682;BME280;47577;43.610;25.010;2023-01-31T15:21:49;100313.19;;;5.01;66.36
61682;BME280;47577;43.610;25.010;2023-01-31T15:26:53;100316.91;;;4.83;66.49
61682;BME280;47577;43.610;25.010;2023-01-31T15:29:25;100317.97;;;4.68;66.49
61682;BME280;47577;43.610;25.010;2023-01-31T15:31:58;100312.94;;;4.45;68.25
61682;BME280;47577;43.610;25.010;2023-01-31T15:34:33;100332.38;;;4.30;67.50
61682;BME280;47577;43.610;25.010;2023-01-31T15:37:20;100329.00;;;4.16;67.59
61682;BME280;47577;43.610;25.010;2023-01-31T15:40:32;100342.28;;;4.00;68.17
61682;BME280;47577;43.610;25.010;2023-01-31T15:42:39;100326.69;;;3.76;69.31
61682;BME280;47577;43.610;25.010;2023-01-31T15:45:31;100330.22;;;3.72;69.69
61682;BME280;47577;43.610;25.010;2023-01-31T15:48:15;100335.63;;;3.50;70.84
61682;BME280;47577;43.610;25.010;2023-01-31T15:50:56;100330.47;;;3.28;70.79
61682;BME280;47577;43.610;25.010;2023-01-31T15:53:25;100344.50;;;3.27;72.12
61682;BME280;47577;43.610;25.010;2023-01-31T15:55:54;100355.91;;;3.16;72.42
61682;BME280;47577;43.610;25.010;2023-01-31T15:58:23;100349.81;;;3.12;72.99
61682;BME280;47577;43.610;25.010;2023-01-31T16:00:55;100345.50;;;3.02;73.30
61682;BME280;47577;43.610;25.010;2023-01-31T16:03:26;100356.84;;;3.05;73.36
61682;BME280;47577;43.610;25.010;2023-01-31T16:05:55;100356.88;;;2.99;73.01
61682;BME280;47577;43.610;25.010;2023-01-31T16:08:34;100357.78;;;2.93;73.45
61682;BME280;47577;43.610;25.010;2023-01-31T16:11:02;100357.78;;;2.87;74.02
61682;BME280;47577;43.610;25.010;2023-01-31T16:13:33;100361.28;;;2.89;74.44
61682;BME280;47577;43.610;25.010;2023-01-31T16:16:00;100340.28;;;2.85;74.84
61682;BME280;47577;43.610;25.010;2023-01-31T16:18:27;100343.75;;;2.95;75.42
61682;BME280;47577;43.610;25.010;2023-01-31T16:20:54;100361.28;;;2.85;76.03
61682;BME280;47577;43.610;25.010;2023-01-31T16:28:44;100367.38;;;2.91;76.55
61682;BME280;47577;43.610;25.010;2023-01-31T16:31:13;100362.13;;;2.91;76.72
61682;BME280;47577;43.610;25.010;2023-01-31T16:33:53;100358.59;;;3.06;77.21
61682;BME280;47577;43.610;25.010;2023-01-31T16:36:50;100362.06;;;3.18;76.64
61682;BME280;47577;43.610;25.010;2023-01-31T16:42:06;100371.66;;;3.22;78.27
61682;BME280;47577;43.610;25.010;2023-01-31T16:44:35;100361.19;;;3.14;78.47
61682;BME280;47577;43.610;25.010;2023-01-31T16:47:05;100375.13;;;3.36;77.82
61682;BME280;47577;43.610;25.010;2023-01-31T16:49:35;100376.78;;;3.50;76.72
61682;BME280;47577;43.610;25.010;2023-01-31T16:52:14;100379.41;;;3.51;77.17
61682;BME280;47577;43.610;25.010;2023-01-31T16:54:49;100382.03;;;3.56;77.07
61682;BME280;47577;43.610;25.010;2023-01-31T16:57:44;100379.41;;;3.54;77.23
61682;BME280;47577;43.610;25.010;2023-01-31T17:02:48;100381.28;;;3.31;77.56
61682;BME280;47577;43.610;25.010;2023-01-31T17:05:22;100388.22;;;3.48;76.34
61682;BME280;47577;43.610;25.010;2023-01-31T17:07:49;100393.38;;;3.61;77.07
61682;BME280;47577;43.610;25.010;2023-01-31T17:10:20;100389.03;;;3.61;76.45
61682;BME280;47577;43.610;25.010;2023-01-31T17:12:58;100375.94;;;3.49;76.55
61682;BME280;47577;43.610;25.010;2023-01-31T17:15:25;100381.25;;;3.34;77.02
61682;BME280;47577;43.610;25.010;2023-01-31T17:17:51;100383.91;;;3.32;77.05
61682;BME280;47577;43.610;25.010;2023-01-31T17:20:18;100384.81;;;3.23;77.07
61682;BME280;47577;43.610;25.010;2023-01-31T17:22:45;100391.81;;;3.26;76.69
61682;BME280;47577;43.610;25.010;2023-01-31T17:25:22;100387.44;;;3.20;76.91
61682;BME280;47577;43.610;25.010;2023-01-31T17:27:49;100389.22;;;3.18;77.03
61682;BME280;47577;43.610;25.010;2023-01-31T17:30:19;100393.53;;;3.28;76.33
61682;BME280;47577;43.610;25.010;2023-01-31T17:32:45;100397.97;;;3.17;76.45
61682;BME280;47577;43.610;25.010;2023-01-31T17:35:40;100391.84;;;3.14;76.41
61682;BME280;47577;43.610;25.010;2023-01-31T17:38:06;100405.00;;;3.09;76.59
61682;BME280;47577;43.610;25.010;2023-01-31T17:40:32;100404.13;;;3.04;77.13
61682;BME280;47577;43.610;25.010;2023-01-31T17:43:00;100398.91;;;3.01;77.47
61682;BME280;47577;43.610;25.010;2023-01-31T17:45:27;100413.78;;;3.08;76.72
61682;BME280;47577;43.610;25.010;2023-01-31T17:47:53;100414.66;;;3.02;76.86
61682;BME280;47577;43.610;25.010;2023-01-31T17:50:22;100418.19;;;2.73;76.79
61682;BME280;47577;43.610;25.010;2023-01-31T17:52:49;100421.69;;;2.85;76.57
61682;BME280;47577;43.610;25.010;2023-01-31T17:55:15;100428.69;;;2.86;76.99
61682;BME280;47577;43.610;25.010;2023-01-31T17:57:43;100412.09;;;2.73;77.33
61682;BME280;47577;43.610;25.010;2023-01-31T18:00:10;100418.19;;;2.75;76.38
61682;BME280;47577;43.610;25.010;2023-01-31T18:02:37;100430.47;;;2.67;77.53
61682;BME280;47577;43.610;25.010;2023-01-31T18:05:06;100426.09;;;2.70;76.77
61682;BME280;47577;43.610;25.010;2023-01-31T18:07:32;100420.84;;;2.73;77.75
61682;BME280;47577;43.610;25.010;2023-01-31T18:09:57;100413.00;;;2.66;76.59
61682;BME280;47577;43.610;25.010;2023-01-31T18:12:23;100419.09;;;2.74;77.02
61682;BME280;47577;43.610;25.010;2023-01-31T18:14:49;100415.56;;;2.73;76.52
61682;BME280;47577;43.610;25.010;2023-01-31T18:17:14;100419.09;;;2.72;76.70
61682;BME280;47577;43.610;25.010;2023-01-31T18:19:41;100432.22;;;2.71;76.60
61682;BME280;47577;43.610;25.010;2023-01-31T18:22:06;100419.97;;;2.61;76.36
61682;BME280;47577;43.610;25.010;2023-01-31T18:24:32;100438.34;;;2.59;76.31
61682;BME280;47577;43.610;25.010;2023-01-31T18:26:58;100447.09;;;2.52;76.28
61682;BME280;47577;43.610;25.010;2023-01-31T18:29:24;100435.72;;;2.59;76.69
61682;BME280;47577;43.610;25.010;2023-01-31T18:31:53;100440.97;;;2.64;76.78
61682;BME280;47577;43.610;25.010;2023-01-31T18:34:24;100433.09;;;2.71;76.47
61682;BME280;47577;43.610;25.010;2023-01-31T18:36:50;100437.47;;;2.54;76.45
61682;BME280;47577;43.610;25.010;2023-01-31T18:39:16;100434.84;;;2.62;76.17
61682;BME280;47577;43.610;25.010;2023-01-31T18:41:41;100434.84;;;2.79;75.41
61682;BME280;47577;43.610;25.010;2023-01-31T18:44:07;100440.97;;;2.70;76.29
61682;BME280;47577;43.610;25.010;2023-01-31T18:46:33;100436.59;;;2.78;75.95
61682;BME280;47577;43.610;25.010;2023-01-31T18:48:58;100433.97;;;2.83;75.72
61682;BME280;47577;43.610;25.010;2023-01-31T18:51:24;100431.34;;;2.84;75.61
61682;BME280;47577;43.610;25.010;2023-01-31T18:53:50;100437.47;;;2.77;76.22
61682;BME280;47577;43.610;25.010;2023-01-31T18:56:18;100440.06;;;2.86;75.64
61682;BME280;47577;43.610;25.010;2023-01-31T18:58:45;100442.72;;;2.79;76.04
61682;BME280;47577;43.610;25.010;2023-01-31T19:01:13;100439.22;;;2.72;75.83
61682;BME280;47577;43.610;25.010;2023-01-31T19:03:40;100446.22;;;2.76;76.69
61682;BME280;47577;43.610;25.010;2023-01-31T19:06:09;100460.22;;;2.73;75.81
61682;BME280;47577;43.610;25.010;2023-01-31T19:08:35;100452.34;;;2.81;74.34
61682;BME280;47577;43.610;25.010;2023-01-31T19:11:10;100456.72;;;2.90;74.69
61682;BME280;47577;43.610;25.010;2023-01-31T19:13:37;100457.59;;;2.84;74.89
61682;BME280;47577;43.610;25.010;2023-01-31T19:16:09;100462.88;;;2.60;75.85
61682;BME280;47577;43.610;25.010;2023-01-31T19:18:35;100475.09;;;2.65;75.44
61682;BME280;47577;43.610;25.010;2023-01-31T19:21:01;100462.00;;;2.58;76.57
61682;BME280;47577;43.610;25.010;2023-01-31T19:23:27;100467.22;;;2.61;75.36
61682;BME280;47577;43.610;25.010;2023-01-31T19:25:53;100471.59;;;2.57;75.79
61682;BME280;47577;43.610;25.010;2023-01-31T19:28:19;100473.34;;;2.52;76.42
61682;BME280;47577;43.610;25.010;2023-01-31T19:30:51;100459.38;;;2.54;75.99
61682;BME280;47577;43.610;25.010;2023-01-31T19:33:18;100462.88;;;2.67;75.18
61682;BME280;47577;43.610;25.010;2023-01-31T19:35:44;100468.09;;;2.70;75.28
61682;BME280;47577;43.610;25.010;2023-01-31T19:38:10;100471.59;;;2.57;75.95
61682;BME280;47577;43.610;25.010;2023-01-31T19:40:36;100470.72;;;2.43;76.34
61682;BME280;47577;43.610;25.010;2023-01-31T19:43:02;100468.13;;;2.53;75.95
61682;BME280;47577;43.610;25.010;2023-01-31T19:45:27;100476.84;;;2.34;77.02
61682;BME280;47577;43.610;25.010;2023-01-31T19:47:53;100471.56;;;2.18;77.05
61682;BME280;47577;43.610;25.010;2023-01-31T19:50:19;100490.78;;;2.05;76.95
61682;BME280;47577;43.610;25.010;2023-01-31T19:52:44;100502.19;;;2.19;77.58
61682;BME280;47577;43.610;25.010;2023-01-31T19:55:10;100498.69;;;2.17;77.47
61682;BME280;47577;43.610;25.010;2023-01-31T19:57:36;100510.97;;;2.40;76.95
61682;BME280;47577;43.610;25.010;2023-01-31T20:00:02;100515.28;;;2.10;77.45
61682;BME280;47577;43.610;25.010;2023-01-31T20:02:28;100512.63;;;1.98;77.95
61682;BME280;47577;43.610;25.010;2023-01-31T20:04:54;100511.75;;;2.04;78.14
61682;BME280;47577;43.610;25.010;2023-01-31T20:07:21;100521.41;;;2.17;78.05
61682;BME280;47577;43.610;25.010;2023-01-31T20:09:48;100506.47;;;1.83;78.91
61682;BME280;47577;43.610;25.010;2023-01-31T20:12:14;100522.31;;;2.19;78.00
61682;BME280;47577;43.610;25.010;2023-01-31T20:14:39;100516.16;;;2.15;78.04
61682;BME280;47577;43.610;25.010;2023-01-31T20:17:05;100510.03;;;2.12;77.65
61682;BME280;47577;43.610;25.010;2023-01-31T20:19:31;100514.38;;;1.93;78.33
61682;BME280;47577;43.610;25.010;2023-01-31T20:21:57;100527.53;;;2.10;77.78
61682;BME280;47577;43.610;25.010;2023-01-31T20:24:22;100531.91;;;2.17;78.19
61682;BME280;47577;43.610;25.010;2023-01-31T20:26:48;100531.03;;;2.15;78.03
61682;BME280;47577;43.610;25.010;2023-01-31T20:29:14;100535.44;;;2.22;77.65
61682;BME280;47577;43.610;25.010;2023-01-31T20:31:39;100538.06;;;2.21;77.75
61682;BME280;47577;43.610;25.010;2023-01-31T20:34:05;100544.16;;;2.19;78.00
61682;BME280;47577;43.610;25.010;2023-01-31T20:36:31;100536.25;;;2.09;78.78
61682;BME280;47577;43.610;25.010;2023-01-31T20:38:56;100527.47;;;1.96;79.20
61682;BME280;47577;43.610;25.010;2023-01-31T20:41:22;100532.69;;;1.87;79.41
61682;BME280;47577;43.610;25.010;2023-01-31T20:43:48;100532.72;;;1.99;79.23
61682;BME280;47577;43.610;25.010;2023-01-31T20:46:15;100528.38;;;1.95;79.04
61682;BME280;47577;43.610;25.010;2023-01-31T20:48:43;100537.09;;;1.98;79.32
61682;BME280;47577;43.610;25.010;2023-01-31T20:51:10;100532.72;;;1.99;78.93
61682;BME280;47577;43.610;25.010;2023-01-31T20:53:36;100526.56;;;1.85;79.34
61682;BME280;47577;43.610;25.010;2023-01-31T20:56:11;100535.31;;;1.85;79.59
61682;BME280;47577;43.610;25.010;2023-01-31T20:58:38;100537.06;;;1.81;79.22
61682;BME280;47577;43.610;25.010;2023-01-31T21:01:05;100541.38;;;1.76;79.92
61682;BME280;47577;43.610;25.010;2023-01-31T21:03:32;100535.28;;;1.80;79.39
61682;BME280;47577;43.610;25.010;2023-01-31T21:05:59;100524.81;;;1.83;79.28
61682;BME280;47577;43.610;25.010;2023-01-31T21:08:26;100545.81;;;1.88;79.19
61682;BME280;47577;43.610;25.010;2023-01-31T21:10:53;100537.97;;;1.99;78.79
61682;BME280;47577;43.610;25.010;2023-01-31T21:13:20;100528.31;;;1.84;78.90
61682;BME280;47577;43.610;25.010;2023-01-31T21:15:58;100522.22;;;1.87;78.69
61682;BME280;47577;43.610;25.010;2023-01-31T21:18:26;100543.94;;;1.61;79.83
61682;BME280;47577;43.610;25.010;2023-01-31T21:20:52;100536.13;;;1.72;79.51
61682;BME280;47577;43.610;25.010;2023-01-31T21:23:18;100541.34;;;1.67;79.41
61682;BME280;47577;43.610;25.010;2023-01-31T21:25:44;100543.84;;;1.47;80.50
61682;BME280;47577;43.610;25.010;2023-01-31T21:28:10;100530.66;;;1.28;81.34
61682;BME280;47577;43.610;25.010;2023-01-31T21:30:36;100541.22;;;1.38;81.10
61682;BME280;47577;43.610;25.010;2023-01-31T21:33:03;100539.31;;;1.17;81.59
61682;BME280;47577;43.610;25.010;2023-01-31T21:35:29;100537.66;;;1.28;81.44
61682;BME280;47577;43.610;25.010;2023-01-31T21:37:55;100542.91;;;1.36;81.03
61682;BME280;47577;43.610;25.010;2023-01-31T21:40:20;100548.13;;;1.28;81.14
61682;BME280;47577;43.610;25.010;2023-01-31T21:42:50;100552.50;;;1.32;81.35
61682;BME280;47577;43.610;25.010;2023-01-31T21:45:17;100563.00;;;1.35;80.87
61682;BME280;47577;43.610;25.010;2023-01-31T21:48:03;100555.19;;;1.40;80.50
61682;BME280;47577;43.610;25.010;2023-01-31T21:50:47;100559.56;;;1.47;80.21
61682;BME280;47577;43.610;25.010;2023-01-31T21:53:13;100555.13;;;1.34;80.85
61682;BME280;47577;43.610;25.010;2023-01-31T21:55:39;100555.16;;;1.37;81.31
61682;BME280;47577;43.610;25.010;2023-01-31T21:58:04;100550.75;;;1.34;80.71
61682;BME280;47577;43.610;25.010;2023-01-31T22:00:30;100544.63;;;1.31;80.60
61682;BME280;47577;43.610;25.010;2023-01-31T22:02:56;100559.50;;;1.32;80.68
61682;BME280;47577;43.610;25.010;2023-01-31T22:05:21;100566.53;;;1.39;80.36
61682;BME280;47577;43.610;25.010;2023-01-31T22:07:47;100564.63;;;1.18;80.95
61682;BME280;47577;43.610;25.010;2023-01-31T22:10:12;100561.16;;;1.17;81.58